sensor_id;sensor_type;location;lat;lon;timestamp;P1;durP1;ratioP1;P2;durP2;ratioP2
5026;SDS011;2532;52.480;13.354;2022-08-26T00:01:14;18.00;;;9.80;;
5026;SDS011;2532;52.480;13.354;2022-08-26T00:03:41;22.60;;;9.30;;
5026;SDS011;2532;52.480;13.354;2022-08-26T00:06:09;21.90;;;9.47;;
5026;SDS011;2532;52.480;13.354;2022-08-26T00:08:35;17.80;;;9.83;;
5026;SDS011;2532;52.480;13.354;2022-08-26T00:11:02;22.03;;;10.10;;
5026;SDS011;2532;52.480;13.354;2022-08-26T00:13:30;20.17;;;9.00;;
5026;SDS011;2532;52.480;13.354;2022-08-26T00:15:58;21.10;;;9.60;;
5026;SDS011;2532;52.480;13.354;2022-08-26T00:18:25;19.37;;;9.23;;
5026;SDS011;2532;52.480;13.354;2022-08-26T00:20:52;25.97;;;9.30;;
5026;SDS011;2532;52.480;13.354;2022-08-26T00:23:19;17.07;;;9.03;;
5026;SDS011;2532;52.480;13.354;2022-08-26T00:25:46;18.50;;;9.20;;
5026;SDS011;2532;52.480;13.354;2022-08-26T00:28:13;19.13;;;8.77;;
5026;SDS011;2532;52.480;13.354;2022-08-26T00:30:40;24.10;;;9.87;;
5026;SDS011;2532;52.480;13.354;2022-08-26T00:33:08;16.83;;;9.40;;
5026;SDS011;2532;52.480;13.354;2022-08-26T00:35:38;17.87;;;8.90;;
5026;SDS011;2532;52.480;13.354;2022-08-26T00:38:04;22.37;;;9.13;;
5026;SDS011;2532;52.480;13.354;2022-08-26T00:40:33;20.13;;;10.20;;
5026;SDS011;2532;52.480;13.354;2022-08-26T00:43:02;22.20;;;9.13;;
5026;SDS011;2532;52.480;13.354;2022-08-26T00:45:31;20.57;;;10.47;;
5026;SDS011;2532;52.480;13.354;2022-08-26T00:48:04;24.57;;;10.10;;
5026;SDS011;2532;52.480;13.354;2022-08-26T00:50:35;24.50;;;9.60;;
5026;SDS011;2532;52.480;13.354;2022-08-26T00:53:05;28.27;;;9.43;;
5026;SDS011;2532;52.480;13.354;2022-08-26T00:55:45;21.30;;;10.20;;
5026;SDS011;2532;52.480;13.354;2022-08-26T00:58:16;25.87;;;9.67;;
5026;SDS011;2532;52.480;13.354;2022-08-26T01:00:43;19.83;;;10.60;;
5026;SDS011;2532;52.480;13.354;2022-08-26T01:03:10;17.77;;;9.50;;
5026;SDS011;2532;52.480;13.354;2022-08-26T01:05:39;20.50;;;9.63;;
5026;SDS011;2532;52.480;13.354;2022-08-26T01:08:06;18.00;;;9.50;;
5026;SDS011;2532;52.480;13.354;2022-08-26T01:10:33;20.13;;;9.70;;
5026;SDS011;2532;52.480;13.354;2022-08-26T01:13:02;21.40;;;9.33;;
5026;SDS011;2532;52.480;13.354;2022-08-26T01:15:34;18.30;;;9.77;;
5026;SDS011;2532;52.480;13.354;2022-08-26T01:18:05;16.07;;;9.13;;
5026;SDS011;2532;52.480;13.354;2022-08-26T01:20:34;21.53;;;9.60;;
5026;SDS011;2532;52.480;13.354;2022-08-26T01:23:08;23.00;;;9.93;;
5026;SDS011;2532;52.480;13.354;2022-08-26T01:25:38;22.23;;;10.80;;
5026;SDS011;2532;52.480;13.354;2022-08-26T01:28:09;21.97;;;10.50;;
5026;SDS011;2532;52.480;13.354;2022-08-26T01:30:40;22.03;;;9.27;;
5026;SDS011;2532;52.480;13.354;2022-08-26T01:33:08;17.77;;;9.83;;
5026;SDS011;2532;52.480;13.354;2022-08-26T01:35:39;24.73;;;9.20;;
5026;SDS011;2532;52.480;13.354;2022-08-26T01:38:08;19.87;;;10.00;;
5026;SDS011;2532;52.480;13.354;2022-08-26T01:40:37;18.70;;;9.93;;
5026;SDS011;2532;52.480;13.354;2022-08-26T01:43:08;16.67;;;9.80;;
5026;SDS011;2532;52.480;13.354;2022-08-26T01:45:41;13.80;;;8.53;;
5026;SDS011;2532;52.480;13.354;2022-08-26T01:48:13;22.63;;;9.90;;
5026;SDS011;2532;52.480;13.354;2022-08-26T01:50:42;23.37;;;10.13;;
5026;SDS011;2532;52.480;13.354;2022-08-26T01:53:13;18.80;;;9.93;;
5026;SDS011;2532;52.480;13.354;2022-08-26T01:55:44;21.50;;;10.47;;
5026;SDS011;2532;52.480;13.354;2022-08-26T01:58:15;18.10;;;10.20;;
5026;SDS011;2532;52.480;13.354;2022-08-26T02:00:49;12.87;;;9.60;;
5026;SDS011;2532;52.480;13.354;2022-08-26T02:03:16;21.20;;;10.20;;
5026;SDS011;2532;52.480;13.354;2022-08-26T02:05:47;14.80;;;10.30;;
5026;SDS011;2532;52.480;13.354;2022-08-26T02:08:19;24.73;;;10.27;;
5026;SDS011;2532;52.480;13.354;2022-08-26T02:10:48;16.90;;;9.83;;
5026;SDS011;2532;52.480;13.354;2022-08-26T02:13:15;16.53;;;9.77;;
5026;SDS011;2532;52.480;13.354;2022-08-26T02:15:44;19.10;;;10.77;;
5026;SDS011;2532;52.480;13.354;2022-08-26T02:18:12;27.60;;;10.50;;
5026;SDS011;2532;52.480;13.354;2022-08-26T02:20:41;20.90;;;11.17;;
5026;SDS011;2532;52.480;13.354;2022-08-26T02:23:08;32.03;;;12.70;;
5026;SDS011;2532;52.480;13.354;2022-08-26T02:25:39;22.00;;;11.93;;
5026;SDS011;2532;52.480;13.354;2022-08-26T02:28:12;22.37;;;11.63;;
5026;SDS011;2532;52.480;13.354;2022-08-26T02:30:41;21.60;;;10.90;;
5026;SDS011;2532;52.480;13.354;2022-08-26T02:33:11;23.67;;;12.60;;
5026;SDS011;2532;52.480;13.354;2022-08-26T02:35:38;23.93;;;11.50;;
5026;SDS011;2532;52.480;13.354;2022-08-26T02:38:05;19.00;;;11.20;;
5026;SDS011;2532;52.480;13.354;2022-08-26T02:40:35;18.80;;;11.07;;
5026;SDS011;2532;52.480;13.354;2022-08-26T02:43:06;22.53;;;11.30;;
5026;SDS011;2532;52.480;13.354;2022-08-26T02:45:33;24.97;;;10.70;;
5026;SDS011;2532;52.480;13.354;2022-08-26T02:48:02;20.97;;;11.50;;
5026;SDS011;2532;52.480;13.354;2022-08-26T02:50:35;15.63;;;10.20;;
5026;SDS011;2532;52.480;13.354;2022-08-26T02:53:03;25.93;;;11.20;;
5026;SDS011;2532;52.480;13.354;2022-08-26T02:55:30;23.40;;;11.40;;
5026;SDS011;2532;52.480;13.354;2022-08-26T02:57:58;22.13;;;9.80;;
5026;SDS011;2532;52.480;13.354;2022-08-26T03:00:26;19.67;;;11.00;;
5026;SDS011;2532;52.480;13.354;2022-08-26T03:02:53;23.67;;;11.40;;
5026;SDS011;2532;52.480;13.354;2022-08-26T03:05:20;23.90;;;11.60;;
5026;SDS011;2532;52.480;13.354;2022-08-26T03:07:47;23.20;;;10.63;;
5026;SDS011;2532;52.480;13.354;2022-08-26T03:10:14;21.73;;;11.00;;
5026;SDS011;2532;52.480;13.354;2022-08-26T03:12:42;22.73;;;10.80;;
5026;SDS011;2532;52.480;13.354;2022-08-26T03:15:12;20.00;;;10.83;;
5026;SDS011;2532;52.480;13.354;2022-08-26T03:17:40;24.67;;;11.40;;
5026;SDS011;2532;52.480;13.354;2022-08-26T03:20:08;20.60;;;11.87;;
5026;SDS011;2532;52.480;13.354;2022-08-26T03:22:35;21.67;;;12.70;;
5026;SDS011;2532;52.480;13.354;2022-08-26T03:25:03;17.27;;;11.00;;
5026;SDS011;2532;52.480;13.354;2022-08-26T03:27:32;30.33;;;12.43;;
5026;SDS011;2532;52.480;13.354;2022-08-26T03:29:59;19.70;;;11.30;;
5026;SDS011;2532;52.480;13.354;2022-08-26T03:32:45;24.30;;;11.70;;
5026;SDS011;2532;52.480;13.354;2022-08-26T03:35:12;25.73;;;11.40;;
5026;SDS011;2532;52.480;13.354;2022-08-26T03:37:39;23.20;;;11.53;;
5026;SDS011;2532;52.480;13.354;2022-08-26T03:40:06;18.70;;;10.57;;
5026;SDS011;2532;52.480;13.354;2022-08-26T03:42:35;21.00;;;12.07;;
5026;SDS011;2532;52.480;13.354;2022-08-26T03:45:03;30.47;;;12.80;;
5026;SDS011;2532;52.480;13.354;2022-08-26T03:47:31;20.30;;;11.60;;
5026;SDS011;2532;52.480;13.354;2022-08-26T03:50:00;20.83;;;11.10;;
5026;SDS011;2532;52.480;13.354;2022-08-26T03:52:27;23.93;;;11.13;;
5026;SDS011;2532;52.480;13.354;2022-08-26T03:54:56;20.60;;;12.40;;
5026;SDS011;2532;52.480;13.354;2022-08-26T03:57:23;25.70;;;12.63;;
5026;SDS011;2532;52.480;13.354;2022-08-26T03:59:49;24.23;;;10.87;;
5026;SDS011;2532;52.480;13.354;2022-08-26T04:02:16;21.53;;;11.43;;
5026;SDS011;2532;52.480;13.354;2022-08-26T04:04:43;23.10;;;12.37;;
5026;SDS011;2532;52.480;13.354;2022-08-26T04:07:11;18.10;;;11.23;;
5026;SDS011;2532;52.480;13.354;2022-08-26T04:09:38;19.70;;;12.43;;
5026;SDS011;2532;52.480;13.354;2022-08-26T04:12:05;25.10;;;12.33;;
5026;SDS011;2532;52.480;13.354;2022-08-26T04:14:32;25.40;;;12.40;;
5026;SDS011;2532;52.480;13.354;2022-08-26T04:17:01;20.80;;;11.80;;
5026;SDS011;2532;52.480;13.354;2022-08-26T04:19:30;26.43;;;12.30;;
5026;SDS011;2532;52.480;13.354;2022-08-26T04:21:57;23.07;;;12.00;;
5026;SDS011;2532;52.480;13.354;2022-08-26T04:24:26;22.33;;;12.23;;
5026;SDS011;2532;52.480;13.354;2022-08-26T04:26:53;23.40;;;11.60;;
5026;SDS011;2532;52.480;13.354;2022-08-26T04:29:21;21.33;;;12.53;;
5026;SDS011;2532;52.480;13.354;2022-08-26T04:31:49;21.63;;;11.90;;
5026;SDS011;2532;52.480;13.354;2022-08-26T04:34:18;27.27;;;13.17;;
5026;SDS011;2532;52.480;13.354;2022-08-26T04:36:46;25.93;;;13.77;;
5026;SDS011;2532;52.480;13.354;2022-08-26T04:39:13;32.20;;;13.00;;
5026;SDS011;2532;52.480;13.354;2022-08-26T04:41:42;19.80;;;12.50;;
5026;SDS011;2532;52.480;13.354;2022-08-26T04:44:09;24.93;;;12.73;;
5026;SDS011;2532;52.480;13.354;2022-08-26T04:46:36;21.80;;;13.93;;
5026;SDS011;2532;52.480;13.354;2022-08-26T04:49:04;22.97;;;15.50;;
5026;SDS011;2532;52.480;13.354;2022-08-26T04:51:32;32.80;;;14.20;;
5026;SDS011;2532;52.480;13.354;2022-08-26T04:53:59;26.03;;;12.70;;
5026;SDS011;2532;52.480;13.354;2022-08-26T04:56:27;22.53;;;11.40;;
5026;SDS011;2532;52.480;13.354;2022-08-26T04:58:59;24.30;;;11.80;;
5026;SDS011;2532;52.480;13.354;2022-08-26T05:01:27;26.07;;;12.27;;
5026;SDS011;2532;52.480;13.354;2022-08-26T05:03:55;33.73;;;12.20;;
5026;SDS011;2532;52.480;13.354;2022-08-26T05:06:22;24.67;;;13.40;;
5026;SDS011;2532;52.480;13.354;2022-08-26T05:08:50;28.47;;;12.50;;
5026;SDS011;2532;52.480;13.354;2022-08-26T05:11:16;27.43;;;12.00;;
5026;SDS011;2532;52.480;13.354;2022-08-26T05:13:44;26.37;;;10.70;;
5026;SDS011;2532;52.480;13.354;2022-08-26T05:16:13;31.27;;;11.77;;
5026;SDS011;2532;52.480;13.354;2022-08-26T05:18:41;19.40;;;11.47;;
5026;SDS011;2532;52.480;13.354;2022-08-26T05:21:16;23.80;;;11.90;;
5026;SDS011;2532;52.480;13.354;2022-08-26T05:23:49;22.83;;;11.90;;
5026;SDS011;2532;52.480;13.354;2022-08-26T05:26:19;23.43;;;12.10;;
5026;SDS011;2532;52.480;13.354;2022-08-26T05:28:47;27.63;;;12.70;;
5026;SDS011;2532;52.480;13.354;2022-08-26T05:31:16;24.43;;;12.00;;
5026;SDS011;2532;52.480;13.354;2022-08-26T05:33:44;26.23;;;12.20;;
5026;SDS011;2532;52.480;13.354;2022-08-26T05:36:13;31.30;;;14.47;;
5026;SDS011;2532;52.480;13.354;2022-08-26T05:38:42;29.87;;;12.60;;
5026;SDS011;2532;52.480;13.354;2022-08-26T05:41:13;21.37;;;12.13;;
5026;SDS011;2532;52.480;13.354;2022-08-26T05:43:42;25.40;;;14.80;;
5026;SDS011;2532;52.480;13.354;2022-08-26T05:46:09;25.53;;;13.77;;
5026;SDS011;2532;52.480;13.354;2022-08-26T05:48:37;35.57;;;12.57;;
5026;SDS011;2532;52.480;13.354;2022-08-26T05:51:06;28.40;;;13.37;;
5026;SDS011;2532;52.480;13.354;2022-08-26T05:53:35;30.03;;;14.17;;
5026;SDS011;2532;52.480;13.354;2022-08-26T05:56:05;30.67;;;12.55;;
5026;SDS011;2532;52.480;13.354;2022-08-26T05:58:33;32.03;;;14.47;;
5026;SDS011;2532;52.480;13.354;2022-08-26T06:01:02;25.00;;;11.67;;
5026;SDS011;2532;52.480;13.354;2022-08-26T06:03:31;24.00;;;12.03;;
5026;SDS011;2532;52.480;13.354;2022-08-26T06:06:03;29.30;;;14.77;;
5026;SDS011;2532;52.480;13.354;2022-08-26T06:08:30;28.87;;;14.10;;
5026;SDS011;2532;52.480;13.354;2022-08-26T06:10:58;25.67;;;14.17;;
5026;SDS011;2532;52.480;13.354;2022-08-26T06:13:28;21.80;;;13.33;;
5026;SDS011;2532;52.480;13.354;2022-08-26T06:15:56;25.80;;;12.50;;
5026;SDS011;2532;52.480;13.354;2022-08-26T06:18:25;31.60;;;12.93;;
5026;SDS011;2532;52.480;13.354;2022-08-26T06:20:59;31.53;;;13.20;;
5026;SDS011;2532;52.480;13.354;2022-08-26T06:23:28;26.77;;;13.80;;
5026;SDS011;2532;52.480;13.354;2022-08-26T06:26:13;36.93;;;14.40;;
5026;SDS011;2532;52.480;13.354;2022-08-26T06:28:41;36.73;;;14.40;;
5026;SDS011;2532;52.480;13.354;2022-08-26T06:31:09;33.33;;;16.50;;
5026;SDS011;2532;52.480;13.354;2022-08-26T06:33:37;29.97;;;14.50;;
5026;SDS011;2532;52.480;13.354;2022-08-26T06:36:04;36.40;;;13.33;;
5026;SDS011;2532;52.480;13.354;2022-08-26T06:38:32;43.00;;;13.57;;
5026;SDS011;2532;52.480;13.354;2022-08-26T06:40:59;36.27;;;17.97;;
5026;SDS011;2532;52.480;13.354;2022-08-26T06:43:26;38.30;;;19.10;;
5026;SDS011;2532;52.480;13.354;2022-08-26T06:45:59;32.27;;;14.90;;
5026;SDS011;2532;52.480;13.354;2022-08-26T06:48:26;37.87;;;13.50;;
5026;SDS011;2532;52.480;13.354;2022-08-26T06:51:00;38.17;;;13.40;;
5026;SDS011;2532;52.480;13.354;2022-08-26T06:53:29;32.30;;;14.80;;
5026;SDS011;2532;52.480;13.354;2022-08-26T06:55:57;26.50;;;12.47;;
5026;SDS011;2532;52.480;13.354;2022-08-26T06:58:24;29.23;;;12.80;;
5026;SDS011;2532;52.480;13.354;2022-08-26T07:00:50;31.93;;;16.53;;
5026;SDS011;2532;52.480;13.354;2022-08-26T07:03:17;26.60;;;13.07;;
5026;SDS011;2532;52.480;13.354;2022-08-26T07:05:46;34.63;;;13.43;;
5026;SDS011;2532;52.480;13.354;2022-08-26T07:08:13;39.00;;;16.80;;
5026;SDS011;2532;52.480;13.354;2022-08-26T07:10:41;34.53;;;16.73;;
5026;SDS011;2532;52.480;13.354;2022-08-26T07:13:09;29.67;;;14.00;;
5026;SDS011;2532;52.480;13.354;2022-08-26T07:15:38;62.90;;;15.80;;
5026;SDS011;2532;52.480;13.354;2022-08-26T07:18:05;28.20;;;13.67;;
5026;SDS011;2532;52.480;13.354;2022-08-26T07:20:35;28.00;;;12.00;;
5026;SDS011;2532;52.480;13.354;2022-08-26T07:23:04;29.40;;;14.00;;
5026;SDS011;2532;52.480;13.354;2022-08-26T07:25:31;22.47;;;12.13;;
5026;SDS011;2532;52.480;13.354;2022-08-26T07:27:58;22.23;;;11.50;;
5026;SDS011;2532;52.480;13.354;2022-08-26T07:30:26;31.97;;;13.30;;
5026;SDS011;2532;52.480;13.354;2022-08-26T07:32:54;33.73;;;12.20;;
5026;SDS011;2532;52.480;13.354;2022-08-26T07:35:23;25.83;;;12.00;;
5026;SDS011;2532;52.480;13.354;2022-08-26T07:37:50;32.47;;;11.90;;
5026;SDS011;2532;52.480;13.354;2022-08-26T07:40:17;21.47;;;11.10;;
5026;SDS011;2532;52.480;13.354;2022-08-26T07:42:44;27.80;;;11.43;;
5026;SDS011;2532;52.480;13.354;2022-08-26T07:45:11;28.40;;;12.90;;
5026;SDS011;2532;52.480;13.354;2022-08-26T07:47:40;29.17;;;14.30;;
5026;SDS011;2532;52.480;13.354;2022-08-26T07:50:07;33.30;;;11.73;;
5026;SDS011;2532;52.480;13.354;2022-08-26T07:52:34;28.60;;;11.87;;
5026;SDS011;2532;52.480;13.354;2022-08-26T07:55:03;28.90;;;14.93;;
5026;SDS011;2532;52.480;13.354;2022-08-26T07:57:32;33.60;;;11.97;;
5026;SDS011;2532;52.480;13.354;2022-08-26T07:59:59;30.53;;;11.70;;
5026;SDS011;2532;52.480;13.354;2022-08-26T08:02:27;28.07;;;11.60;;
5026;SDS011;2532;52.480;13.354;2022-08-26T08:04:56;36.17;;;11.23;;
5026;SDS011;2532;52.480;13.354;2022-08-26T08:07:23;27.97;;;11.13;;
5026;SDS011;2532;52.480;13.354;2022-08-26T08:09:51;18.90;;;11.80;;
5026;SDS011;2532;52.480;13.354;2022-08-26T08:12:18;20.77;;;9.70;;
5026;SDS011;2532;52.480;13.354;2022-08-26T08:14:45;28.03;;;10.53;;
5026;SDS011;2532;52.480;13.354;2022-08-26T08:17:13;23.70;;;11.10;;
5026;SDS011;2532;52.480;13.354;2022-08-26T08:19:41;31.83;;;13.90;;
5026;SDS011;2532;52.480;13.354;2022-08-26T08:22:10;25.03;;;11.47;;
5026;SDS011;2532;52.480;13.354;2022-08-26T08:24:37;23.27;;;11.17;;
5026;SDS011;2532;52.480;13.354;2022-08-26T08:27:04;24.77;;;11.00;;
5026;SDS011;2532;52.480;13.354;2022-08-26T08:29:31;21.23;;;10.20;;
5026;SDS011;2532;52.480;13.354;2022-08-26T08:31:59;22.53;;;10.80;;
5026;SDS011;2532;52.480;13.354;2022-08-26T08:34:27;21.10;;;11.00;;
5026;SDS011;2532;52.480;13.354;2022-08-26T08:36:55;22.70;;;11.43;;
5026;SDS011;2532;52.480;13.354;2022-08-26T08:39:24;34.63;;;11.67;;
5026;SDS011;2532;52.480;13.354;2022-08-26T08:41:59;23.80;;;11.00;;
5026;SDS011;2532;52.480;13.354;2022-08-26T08:44:44;35.80;;;14.40;;
5026;SDS011;2532;52.480;13.354;2022-08-26T08:47:16;25.70;;;9.97;;
5026;SDS011;2532;52.480;13.354;2022-08-26T08:49:45;22.40;;;9.03;;
5026;SDS011;2532;52.480;13.354;2022-08-26T08:52:13;19.77;;;9.37;;
5026;SDS011;2532;52.480;13.354;2022-08-26T08:54:51;21.83;;;9.67;;
5026;SDS011;2532;52.480;13.354;2022-08-26T08:57:20;24.03;;;10.03;;
5026;SDS011;2532;52.480;13.354;2022-08-26T08:59:55;22.37;;;8.63;;
5026;SDS011;2532;52.480;13.354;2022-08-26T09:02:31;21.47;;;9.10;;
5026;SDS011;2532;52.480;13.354;2022-08-26T09:05:05;23.70;;;12.23;;
5026;SDS011;2532;52.480;13.354;2022-08-26T09:07:36;36.63;;;14.33;;
5026;SDS011;2532;52.480;13.354;2022-08-26T09:10:14;26.60;;;8.80;;
5026;SDS011;2532;52.480;13.354;2022-08-26T09:12:49;22.07;;;8.77;;
5026;SDS011;2532;52.480;13.354;2022-08-26T09:15:17;33.37;;;9.07;;
5026;SDS011;2532;52.480;13.354;2022-08-26T09:17:49;26.13;;;8.77;;
5026;SDS011;2532;52.480;13.354;2022-08-26T09:20:24;30.40;;;8.97;;
5026;SDS011;2532;52.480;13.354;2022-08-26T09:23:00;23.10;;;8.73;;
5026;SDS011;2532;52.480;13.354;2022-08-26T09:25:30;31.47;;;9.07;;
5026;SDS011;2532;52.480;13.354;2022-08-26T09:28:17;19.60;;;9.37;;
5026;SDS011;2532;52.480;13.354;2022-08-26T09:30:57;34.27;;;10.50;;
5026;SDS011;2532;52.480;13.354;2022-08-26T09:33:26;20.90;;;10.00;;
5026;SDS011;2532;52.480;13.354;2022-08-26T09:36:10;21.30;;;9.73;;
5026;SDS011;2532;52.480;13.354;2022-08-26T09:38:50;28.17;;;10.53;;
5026;SDS011;2532;52.480;13.354;2022-08-26T09:41:21;27.93;;;10.37;;
5026;SDS011;2532;52.480;13.354;2022-08-26T09:44:08;30.50;;;10.43;;
5026;SDS011;2532;52.480;13.354;2022-08-26T09:46:41;25.40;;;9.97;;
5026;SDS011;2532;52.480;13.354;2022-08-26T09:49:27;27.03;;;10.30;;
5026;SDS011;2532;52.480;13.354;2022-08-26T09:52:10;20.23;;;8.10;;
5026;SDS011;2532;52.480;13.354;2022-08-26T09:54:41;22.07;;;9.23;;
5026;SDS011;2532;52.480;13.354;2022-08-26T09:57:13;26.50;;;10.83;;
5026;SDS011;2532;52.480;13.354;2022-08-26T09:59:44;34.23;;;10.13;;
5026;SDS011;2532;52.480;13.354;2022-08-26T10:02:21;29.70;;;9.87;;
5026;SDS011;2532;52.480;13.354;2022-08-26T10:05:00;32.00;;;9.27;;
5026;SDS011;2532;52.480;13.354;2022-08-26T10:07:34;28.73;;;9.43;;
5026;SDS011;2532;52.480;13.354;2022-08-26T10:10:05;35.03;;;9.40;;
5026;SDS011;2532;52.480;13.354;2022-08-26T10:12:40;31.13;;;9.60;;
5026;SDS011;2532;52.480;13.354;2022-08-26T10:15:13;20.93;;;9.33;;
5026;SDS011;2532;52.480;13.354;2022-08-26T10:17:42;26.87;;;10.87;;
5026;SDS011;2532;52.480;13.354;2022-08-26T10:20:15;35.33;;;16.47;;
5026;SDS011;2532;52.480;13.354;2022-08-26T10:22:47;26.73;;;9.30;;
5026;SDS011;2532;52.480;13.354;2022-08-26T10:25:22;26.97;;;9.77;;
5026;SDS011;2532;52.480;13.354;2022-08-26T10:27:57;29.50;;;9.20;;
5026;SDS011;2532;52.480;13.354;2022-08-26T10:30:29;32.10;;;8.67;;
5026;SDS011;2532;52.480;13.354;2022-08-26T10:33:02;28.57;;;9.03;;
5026;SDS011;2532;52.480;13.354;2022-08-26T10:35:32;21.70;;;8.17;;
5026;SDS011;2532;52.480;13.354;2022-08-26T10:38:03;33.13;;;9.40;;
5026;SDS011;2532;52.480;13.354;2022-08-26T10:40:40;32.93;;;9.47;;
5026;SDS011;2532;52.480;13.354;2022-08-26T10:43:19;24.87;;;8.80;;
5026;SDS011;2532;52.480;13.354;2022-08-26T10:45:51;24.53;;;7.97;;
5026;SDS011;2532;52.480;13.354;2022-08-26T10:48:21;19.57;;;8.53;;
5026;SDS011;2532;52.480;13.354;2022-08-26T10:50:55;25.20;;;9.30;;
5026;SDS011;2532;52.480;13.354;2022-08-26T10:53:26;37.83;;;11.03;;
5026;SDS011;2532;52.480;13.354;2022-08-26T10:56:06;20.80;;;9.10;;
5026;SDS011;2532;52.480;13.354;2022-08-26T10:58:53;27.87;;;8.20;;
5026;SDS011;2532;52.480;13.354;2022-08-26T11:01:27;38.53;;;17.50;;
5026;SDS011;2532;52.480;13.354;2022-08-26T11:04:10;40.27;;;10.40;;
5026;SDS011;2532;52.480;13.354;2022-08-26T11:06:43;22.87;;;9.47;;
5026;SDS011;2532;52.480;13.354;2022-08-26T11:09:11;21.30;;;9.03;;
5026;SDS011;2532;52.480;13.354;2022-08-26T11:11:58;26.40;;;10.23;;
5026;SDS011;2532;52.480;13.354;2022-08-26T11:14:36;36.00;;;9.30;;
5026;SDS011;2532;52.480;13.354;2022-08-26T11:17:03;24.13;;;9.70;;
5026;SDS011;2532;52.480;13.354;2022-08-26T11:19:58;19.50;;;8.30;;
5026;SDS011;2532;52.480;13.354;2022-08-26T11:22:28;32.47;;;9.70;;
5026;SDS011;2532;52.480;13.354;2022-08-26T11:25:00;28.10;;;8.80;;
5026;SDS011;2532;52.480;13.354;2022-08-26T11:30:40;17.90;;;8.77;;
5026;SDS011;2532;52.480;13.354;2022-08-26T11:39:04;26.03;;;9.13;;
5026;SDS011;2532;52.480;13.354;2022-08-26T11:41:41;28.30;;;10.40;;
5026;SDS011;2532;52.480;13.354;2022-08-26T11:44:08;38.23;;;15.93;;
5026;SDS011;2532;52.480;13.354;2022-08-26T11:46:37;40.73;;;17.97;;
5026;SDS011;2532;52.480;13.354;2022-08-26T11:49:05;25.97;;;11.07;;
5026;SDS011;2532;52.480;13.354;2022-08-26T11:51:33;10.83;;;4.27;;
5026;SDS011;2532;52.480;13.354;2022-08-26T11:54:08;12.90;;;4.77;;
5026;SDS011;2532;52.480;13.354;2022-08-26T11:56:42;10.43;;;4.97;;
5026;SDS011;2532;52.480;13.354;2022-08-26T11:59:16;14.70;;;5.70;;
5026;SDS011;2532;52.480;13.354;2022-08-26T12:01:52;9.43;;;4.23;;
5026;SDS011;2532;52.480;13.354;2022-08-26T12:04:24;14.83;;;5.70;;
5026;SDS011;2532;52.480;13.354;2022-08-26T12:06:53;8.37;;;5.10;;
5026;SDS011;2532;52.480;13.354;2022-08-26T12:09:23;12.87;;;5.70;;
5026;SDS011;2532;52.480;13.354;2022-08-26T12:12:07;13.77;;;5.90;;
5026;SDS011;2532;52.480;13.354;2022-08-26T12:14:36;14.43;;;6.33;;
5026;SDS011;2532;52.480;13.354;2022-08-26T12:17:11;14.57;;;6.03;;
5026;SDS011;2532;52.480;13.354;2022-08-26T12:19:40;12.77;;;6.17;;
5026;SDS011;2532;52.480;13.354;2022-08-26T12:22:13;13.30;;;6.47;;
5026;SDS011;2532;52.480;13.354;2022-08-26T12:24:44;9.30;;;4.67;;
5026;SDS011;2532;52.480;13.354;2022-08-26T12:27:15;9.77;;;6.20;;
5026;SDS011;2532;52.480;13.354;2022-08-26T12:29:58;12.73;;;5.90;;
5026;SDS011;2532;52.480;13.354;2022-08-26T12:32:28;8.07;;;4.87;;
5026;SDS011;2532;52.480;13.354;2022-08-26T12:34:56;14.47;;;6.17;;
5026;SDS011;2532;52.480;13.354;2022-08-26T12:37:25;14.13;;;7.03;;
5026;SDS011;2532;52.480;13.354;2022-08-26T12:39:55;10.30;;;5.90;;
5026;SDS011;2532;52.480;13.354;2022-08-26T12:42:59;13.53;;;6.30;;
5026;SDS011;2532;52.480;13.354;2022-08-26T12:45:29;11.73;;;7.07;;
5026;SDS011;2532;52.480;13.354;2022-08-26T12:47:59;6.50;;;5.63;;
5026;SDS011;2532;52.480;13.354;2022-08-26T12:50:32;7.20;;;6.30;;
5026;SDS011;2532;52.480;13.354;2022-08-26T12:53:01;10.60;;;5.80;;
5026;SDS011;2532;52.480;13.354;2022-08-26T12:55:35;9.33;;;5.83;;
5026;SDS011;2532;52.480;13.354;2022-08-26T12:58:11;7.33;;;5.57;;
5026;SDS011;2532;52.480;13.354;2022-08-26T13:00:46;16.70;;;7.07;;
5026;SDS011;2532;52.480;13.354;2022-08-26T13:03:35;10.33;;;5.53;;
5026;SDS011;2532;52.480;13.354;2022-08-26T13:06:08;9.83;;;5.97;;
5026;SDS011;2532;52.480;13.354;2022-08-26T13:08:40;7.33;;;5.40;;
5026;SDS011;2532;52.480;13.354;2022-08-26T13:11:09;18.27;;;6.23;;
5026;SDS011;2532;52.480;13.354;2022-08-26T13:13:38;15.07;;;6.83;;
5026;SDS011;2532;52.480;13.354;2022-08-26T13:16:05;10.50;;;6.57;;
5026;SDS011;2532;52.480;13.354;2022-08-26T13:18:33;9.00;;;6.37;;
5026;SDS011;2532;52.480;13.354;2022-08-26T13:21:06;12.20;;;7.77;;
5026;SDS011;2532;52.480;13.354;2022-08-26T13:23:34;12.80;;;7.70;;
5026;SDS011;2532;52.480;13.354;2022-08-26T13:26:01;14.90;;;8.27;;
5026;SDS011;2532;52.480;13.354;2022-08-26T13:28:28;28.87;;;12.97;;
5026;SDS011;2532;52.480;13.354;2022-08-26T13:30:54;16.50;;;7.70;;
5026;SDS011;2532;52.480;13.354;2022-08-26T13:33:21;18.30;;;8.83;;
5026;SDS011;2532;52.480;13.354;2022-08-26T13:35:50;13.20;;;8.93;;
5026;SDS011;2532;52.480;13.354;2022-08-26T13:38:16;17.40;;;11.40;;
5026;SDS011;2532;52.480;13.354;2022-08-26T13:40:43;12.87;;;9.87;;
5026;SDS011;2532;52.480;13.354;2022-08-26T13:43:12;15.80;;;10.60;;
5026;SDS011;2532;52.480;13.354;2022-08-26T13:45:39;15.07;;;9.50;;
5026;SDS011;2532;52.480;13.354;2022-08-26T13:48:06;13.30;;;8.37;;
5026;SDS011;2532;52.480;13.354;2022-08-26T13:50:33;14.40;;;10.10;;
5026;SDS011;2532;52.480;13.354;2022-08-26T13:53:01;11.53;;;7.83;;
5026;SDS011;2532;52.480;13.354;2022-08-26T13:55:28;12.17;;;8.23;;
5026;SDS011;2532;52.480;13.354;2022-08-26T13:57:55;10.07;;;7.97;;
5026;SDS011;2532;52.480;13.354;2022-08-26T14:00:22;15.43;;;8.00;;
5026;SDS011;2532;52.480;13.354;2022-08-26T14:02:49;11.93;;;8.77;;
5026;SDS011;2532;52.480;13.354;2022-08-26T14:05:16;11.17;;;8.10;;
5026;SDS011;2532;52.480;13.354;2022-08-26T14:07:43;13.90;;;9.40;;
5026;SDS011;2532;52.480;13.354;2022-08-26T14:10:11;12.13;;;9.00;;
5026;SDS011;2532;52.480;13.354;2022-08-26T14:12:38;14.80;;;9.60;;
5026;SDS011;2532;52.480;13.354;2022-08-26T14:15:05;13.43;;;8.90;;
5026;SDS011;2532;52.480;13.354;2022-08-26T14:17:33;11.63;;;9.60;;
5026;SDS011;2532;52.480;13.354;2022-08-26T14:20:00;18.37;;;9.50;;
5026;SDS011;2532;52.480;13.354;2022-08-26T14:22:27;12.83;;;9.43;;
5026;SDS011;2532;52.480;13.354;2022-08-26T14:24:55;10.53;;;8.63;;
5026;SDS011;2532;52.480;13.354;2022-08-26T14:27:23;13.77;;;9.50;;
5026;SDS011;2532;52.480;13.354;2022-08-26T14:29:51;14.03;;;9.07;;
5026;SDS011;2532;52.480;13.354;2022-08-26T14:32:20;12.83;;;8.93;;
5026;SDS011;2532;52.480;13.354;2022-08-26T14:34:49;15.70;;;7.63;;
5026;SDS011;2532;52.480;13.354;2022-08-26T14:37:17;16.37;;;8.57;;
5026;SDS011;2532;52.480;13.354;2022-08-26T14:39:44;16.63;;;9.93;;
5026;SDS011;2532;52.480;13.354;2022-08-26T14:42:11;16.30;;;9.37;;
5026;SDS011;2532;52.480;13.354;2022-08-26T14:44:42;19.83;;;10.93;;
5026;SDS011;2532;52.480;13.354;2022-08-26T14:47:11;18.40;;;9.30;;
5026;SDS011;2532;52.480;13.354;2022-08-26T14:49:38;17.10;;;9.00;;
5026;SDS011;2532;52.480;13.354;2022-08-26T14:52:04;16.37;;;8.43;;
5026;SDS011;2532;52.480;13.354;2022-08-26T14:54:31;12.47;;;8.70;;
5026;SDS011;2532;52.480;13.354;2022-08-26T14:56:59;15.47;;;10.03;;
5026;SDS011;2532;52.480;13.354;2022-08-26T14:59:29;13.50;;;8.60;;
5026;SDS011;2532;52.480;13.354;2022-08-26T15:01:59;15.27;;;8.77;;
5026;SDS011;2532;52.480;13.354;2022-08-26T15:04:26;18.30;;;8.57;;
5026;SDS011;2532;52.480;13.354;2022-08-26T15:06:54;18.40;;;9.90;;